sensor_id;sensor_type;location;lat;lon;timestamp;temperature;humidity
27270;DHT22;14769;56.934;24.176;2022-12-29T00:00:07;2.10;99.90
27270;DHT22;14769;56.934;24.176;2022-12-29T00:01:09;2.10;99.90
27270;DHT22;14769;56.934;24.176;2022-12-29T00:02:13;2.10;99.90
27270;DHT22;14769;56.934;24.176;2022-12-29T00:03:16;2.10;99.90
27270;DHT22;14769;56.934;24.176;2022-12-29T00:04:21;2.10;99.90
27270;DHT22;14769;56.934;24.176;2022-12-29T00:05:24;2.10;99.90
27270;DHT22;14769;56.934;24.176;2022-12-29T00:06:26;2.10;99.90
27270;DHT22;14769;56.934;24.176;2022-12-29T00:07:28;2.10;99.90
27270;DHT22;14769;56.934;24.176;2022-12-29T00:08:30;2.10;99.90
27270;DHT22;14769;56.934;24.176;2022-12-29T00:09:42;2.10;99.90
27270;DHT22;14769;56.934;24.176;2022-12-29T00:10:46;2.20;99.90
27270;DHT22;14769;56.934;24.176;2022-12-29T00:11:49;2.10;99.90
27270;DHT22;14769;56.934;24.176;2022-12-29T00:12:51;2.10;99.90
27270;DHT22;14769;56.934;24.176;2022-12-29T00:14:12;2.20;99.90
27270;DHT22;14769;56.934;24.176;2022-12-29T00:15:35;2.10;99.90
27270;DHT22;14769;56.934;24.176;2022-12-29T00:16:42;2.10;99.90
27270;DHT22;14769;56.934;24.176;2022-12-29T00:17:46;2.10;99.90
27270;DHT22;14769;56.934;24.176;2022-12-29T00:18:48;2.10;99.90
27270;DHT22;14769;56.934;24.176;2022-12-29T00:19:50;2.10;99.90
27270;DHT22;14769;56.934;24.176;2022-12-29T00:21:16;2.10;99.90
27270;DHT22;14769;56.934;24.176;2022-12-29T00:22:37;2.10;99.90
27270;DHT22;14769;56.934;24.176;2022-12-29T00:23:58;2.10;99.90
27270;DHT22;14769;56.934;24.176;2022-12-29T00:25:36;2.10;99.90
27270;DHT22;14769;56.934;24.176;2022-12-29T00:28:25;2.10;99.90
27270;DHT22;14769;56.934;24.176;2022-12-29T00:29:47;2.00;99.90
27270;DHT22;14769;56.934;24.176;2022-12-29T00:31:10;2.10;99.90
27270;DHT22;14769;56.934;24.176;2022-12-29T00:32:33;2.00;99.90
27270;DHT22;14769;56.934;24.176;2022-12-29T00:33:54;2.00;99.90
27270;DHT22;14769;56.934;24.176;2022-12-29T00:35:25;2.00;99.90
27270;DHT22;14769;56.934;24.176;2022-12-29T00:36:38;2.00;99.90
27270;DHT22;14769;56.934;24.176;2022-12-29T00:37:46;2.00;99.90
27270;DHT22;14769;56.934;24.176;2022-12-29T00:39:19;2.00;99.90
27270;DHT22;14769;56.934;24.176;2022-12-29T00:40:40;2.10;99.90
27270;DHT22;14769;56.934;24.176;2022-12-29T00:42:06;2.10;99.90
27270;DHT22;14769;56.934;24.176;2022-12-29T00:43:40;2.00;99.90
27270;DHT22;14769;56.934;24.176;2022-12-29T00:45:01;2.00;99.90
27270;DHT22;14769;56.934;24.176;2022-12-29T00:46:05;2.00;99.90
27270;DHT22;14769;56.934;24.176;2022-12-29T00:47:08;2.10;99.90
27270;DHT22;14769;56.934;24.176;2022-12-29T00:48:11;2.00;99.90
27270;DHT22;14769;56.934;24.176;2022-12-29T00:49:15;2.10;99.90
27270;DHT22;14769;56.934;24.176;2022-12-29T00:50:32;2.10;99.90
27270;DHT22;14769;56.934;24.176;2022-12-29T00:51:35;2.10;99.90
27270;DHT22;14769;56.934;24.176;2022-12-29T00:52:37;2.10;99.90
27270;DHT22;14769;56.934;24.176;2022-12-29T00:53:40;2.20;99.90
27270;DHT22;14769;56.934;24.176;2022-12-29T00:54:42;2.10;99.90
27270;DHT22;14769;56.934;24.176;2022-12-29T00:55:46;2.20;99.90
27270;DHT22;14769;56.934;24.176;2022-12-29T00:56:50;2.10;99.90
27270;DHT22;14769;56.934;24.176;2022-12-29T00:57:53;2.20;99.90
27270;DHT22;14769;56.934;24.176;2022-12-29T00:58:59;2.10;99.90
27270;DHT22;14769;56.934;24.176;2022-12-29T01:00:02;2.20;99.90
27270;DHT22;14769;56.934;24.176;2022-12-29T01:01:07;2.10;99.90
27270;DHT22;14769;56.934;24.176;2022-12-29T01:02:10;2.10;99.90
27270;DHT22;14769;56.934;24.176;2022-12-29T01:03:13;2.10;99.90
27270;DHT22;14769;56.934;24.176;2022-12-29T01:04:15;2.20;99.90
27270;DHT22;14769;56.934;24.176;2022-12-29T01:05:18;2.20;99.90
27270;DHT22;14769;56.934;24.176;2022-12-29T01:06:21;2.20;99.90
27270;DHT22;14769;56.934;24.176;2022-12-29T01:07:25;2.20;99.90
27270;DHT22;14769;56.934;24.176;2022-12-29T01:08:30;2.20;99.90
27270;DHT22;14769;56.934;24.176;2022-12-29T01:09:33;2.20;99.90
27270;DHT22;14769;56.934;24.176;2022-12-29T01:10:58;2.10;99.90
27270;DHT22;14769;56.934;24.176;2022-12-29T01:12:03;2.20;99.90
27270;DHT22;14769;56.934;24.176;2022-12-29T01:13:06;2.20;99.90
27270;DHT22;14769;56.934;24.176;2022-12-29T01:14:08;2.10;99.90
27270;DHT22;14769;56.934;24.176;2022-12-29T01:15:13;2.20;99.90
27270;DHT22;14769;56.934;24.176;2022-12-29T01:16:16;2.10;99.90
27270;DHT22;14769;56.934;24.176;2022-12-29T01:17:32;2.20;99.90
27270;DHT22;14769;56.934;24.176;2022-12-29T01:18:58;2.20;99.90
27270;DHT22;14769;56.934;24.176;2022-12-29T01:20:12;2.20;99.90
27270;DHT22;14769;56.934;24.176;2022-12-29T01:21:47;2.20;99.90
27270;DHT22;14769;56.934;24.176;2022-12-29T01:23:19;2.20;99.90
27270;DHT22;14769;56.934;24.176;2022-12-29T01:24:38;2.20;99.90
27270;DHT22;14769;56.934;24.176;2022-12-29T01:25:43;2.10;99.90
27270;DHT22;14769;56.934;24.176;2022-12-29T01:26:56;2.10;99.90
27270;DHT22;14769;56.934;24.176;2022-12-29T01:28:01;2.20;99.90
27270;DHT22;14769;56.934;24.176;2022-12-29T01:29:10;2.20;99.90
27270;DHT22;14769;56.934;24.176;2022-12-29T01:30:16;2.10;99.90
27270;DHT22;14769;56.934;24.176;2022-12-29T01:31:19;2.20;99.90
27270;DHT22;14769;56.934;24.176;2022-12-29T01:32:33;2.20;99.90
27270;DHT22;14769;56.934;24.176;2022-12-29T01:33:43;2.20;99.90
27270;DHT22;14769;56.934;24.176;2022-12-29T01:34:52;2.20;99.90
27270;DHT22;14769;56.934;24.176;2022-12-29T01:36:02;2.20;99.90
27270;DHT22;14769;56.934;24.176;2022-12-29T01:37:08;2.20;99.90
27270;DHT22;14769;56.934;24.176;2022-12-29T01:38:12;2.20;99.90
27270;DHT22;14769;56.934;24.176;2022-12-29T01:39:18;2.30;99.90
27270;DHT22;14769;56.934;24.176;2022-12-29T01:40:22;2.20;99.90
27270;DHT22;14769;56.934;24.176;2022-12-29T01:41:28;2.20;99.90
27270;DHT22;14769;56.934;24.176;2022-12-29T01:42:31;2.20;99.90
27270;DHT22;14769;56.934;24.176;2022-12-29T01:44:39;2.20;99.90
27270;DHT22;14769;56.934;24.176;2022-12-29T01:45:26;2.20;99.90
27270;DHT22;14769;56.934;24.176;2022-12-29T01:46:40;2.20;99.90
27270;DHT22;14769;56.934;24.176;2022-12-29T01:47:52;2.20;99.90
27270;DHT22;14769;56.934;24.176;2022-12-29T01:49:13;2.20;99.90
27270;DHT22;14769;56.934;24.176;2022-12-29T01:50:39;2.20;99.90
27270;DHT22;14769;56.934;24.176;2022-12-29T01:52:00;2.20;99.90
27270;DHT22;14769;56.934;24.176;2022-12-29T01:53:15;2.10;99.90
27270;DHT22;14769;56.934;24.176;2022-12-29T01:55:59;2.20;99.90
27270;DHT22;14769;56.934;24.176;2022-12-29T01:57:21;2.20;99.90
27270;DHT22;14769;56.934;24.176;2022-12-29T01:58:46;2.20;99.90
27270;DHT22;14769;56.934;24.176;2022-12-29T02:00:07;2.10;99.90
27270;DHT22;14769;56.934;24.176;2022-12-29T02:03:49;2.10;99.90
27270;DHT22;14769;56.934;24.176;2022-12-29T02:09:57;2.10;99.90
27270;DHT22;14769;56.934;24.176;2022-12-29T02:18:18;2.10;99.90
27270;DHT22;14769;56.934;24.176;2022-12-29T02:26:57;2.00;99.90
27270;DHT22;14769;56.934;24.176;2022-12-29T02:34:48;2.00;99.90
27270;DHT22;14769;56.934;24.176;2022-12-29T02:36:29;2.10;99.90
27270;DHT22;14769;56.934;24.176;2022-12-29T02:44:28;2.10;99.90
27270;DHT22;14769;56.934;24.176;2022-12-29T02:50:58;2.10;99.90
27270;DHT22;14769;56.934;24.176;2022-12-29T02:55:27;2.10;99.90
27270;DHT22;14769;56.934;24.176;2022-12-29T02:57:08;2.10;99.90
27270;DHT22;14769;56.934;24.176;2022-12-29T02:58:28;2.00;99.90
27270;DHT22;14769;56.934;24.176;2022-12-29T02:59:58;2.10;99.90
27270;DHT22;14769;56.934;24.176;2022-12-29T03:06:35;2.10;99.90
27270;DHT22;14769;56.934;24.176;2022-12-29T03:10:42;2.10;99.90
27270;DHT22;14769;56.934;24.176;2022-12-29T03:12:15;2.20;99.90
27270;DHT22;14769;56.934;24.176;2022-12-29T03:13:52;2.20;99.90
27270;DHT22;14769;56.934;24.176;2022-12-29T03:15:53;2.20;99.90
27270;DHT22;14769;56.934;24.176;2022-12-29T03:19:59;2.20;99.90
27270;DHT22;14769;56.934;24.176;2022-12-29T03:21:11;2.20;99.90
27270;DHT22;14769;56.934;24.176;2022-12-29T03:22:25;2.20;99.90
27270;DHT22;14769;56.934;24.176;2022-12-29T03:23:31;2.20;99.90
27270;DHT22;14769;56.934;24.176;2022-12-29T03:24:41;2.20;99.90
27270;DHT22;14769;56.934;24.176;2022-12-29T03:25:51;2.20;99.90
27270;DHT22;14769;56.934;24.176;2022-12-29T03:27:03;2.30;99.90
27270;DHT22;14769;56.934;24.176;2022-12-29T03:28:13;2.30;99.90
27270;DHT22;14769;56.934;24.176;2022-12-29T03:29:36;2.30;99.90
27270;DHT22;14769;56.934;24.176;2022-12-29T03:30:58;2.30;99.90
27270;DHT22;14769;56.934;24.176;2022-12-29T03:32:02;2.20;99.90
27270;DHT22;14769;56.934;24.176;2022-12-29T03:33:10;2.30;99.90
27270;DHT22;14769;56.934;24.176;2022-12-29T03:34:16;2.30;99.90
27270;DHT22;14769;56.934;24.176;2022-12-29T03:35:22;2.30;99.90
27270;DHT22;14769;56.934;24.176;2022-12-29T03:36:47;2.30;99.90
27270;DHT22;14769;56.934;24.176;2022-12-29T03:39:18;2.30;99.90
27270;DHT22;14769;56.934;24.176;2022-12-29T03:40:23;2.30;99.90
27270;DHT22;14769;56.934;24.176;2022-12-29T03:41:30;2.30;99.90
27270;DHT22;14769;56.934;24.176;2022-12-29T03:42:35;2.40;99.90
27270;DHT22;14769;56.934;24.176;2022-12-29T03:43:38;2.30;99.90
27270;DHT22;14769;56.934;24.176;2022-12-29T03:44:43;2.30;99.90
27270;DHT22;14769;56.934;24.176;2022-12-29T03:45:46;2.40;99.90
27270;DHT22;14769;56.934;24.176;2022-12-29T03:46:51;2.30;99.90
27270;DHT22;14769;56.934;24.176;2022-12-29T03:47:57;2.40;99.90
27270;DHT22;14769;56.934;24.176;2022-12-29T03:49:10;2.40;99.90
27270;DHT22;14769;56.934;24.176;2022-12-29T03:50:15;2.30;99.90
27270;DHT22;14769;56.934;24.176;2022-12-29T03:51:22;2.40;99.90
27270;DHT22;14769;56.934;24.176;2022-12-29T03:52:27;2.40;99.90
27270;DHT22;14769;56.934;24.176;2022-12-29T03:53:30;2.40;99.90
27270;DHT22;14769;56.934;24.176;2022-12-29T03:54:42;2.30;99.90
27270;DHT22;14769;56.934;24.176;2022-12-29T03:55:51;2.40;99.90
27270;DHT22;14769;56.934;24.176;2022-12-29T03:56:58;2.40;99.90
27270;DHT22;14769;56.934;24.176;2022-12-29T03:58:02;2.40;99.90
27270;DHT22;14769;56.934;24.176;2022-12-29T03:59:06;2.40;99.90
27270;DHT22;14769;56.934;24.176;2022-12-29T04:00:11;2.40;99.90
27270;DHT22;14769;56.934;24.176;2022-12-29T04:01:15;2.40;99.90
27270;DHT22;14769;56.934;24.176;2022-12-29T04:02:21;2.40;99.90
27270;DHT22;14769;56.934;24.176;2022-12-29T04:03:25;2.40;99.90
27270;DHT22;14769;56.934;24.176;2022-12-29T04:04:29;2.40;99.90
27270;DHT22;14769;56.934;24.176;2022-12-29T04:05:31;2.40;99.90
27270;DHT22;14769;56.934;24.176;2022-12-29T04:06:35;2.40;99.90
27270;DHT22;14769;56.934;24.176;2022-12-29T04:07:38;2.40;99.90
27270;DHT22;14769;56.934;24.176;2022-12-29T04:08:42;2.40;99.90
27270;DHT22;14769;56.934;24.176;2022-12-29T04:09:46;2.40;99.90
27270;DHT22;14769;56.934;24.176;2022-12-29T04:10:54;2.40;99.90
27270;DHT22;14769;56.934;24.176;2022-12-29T04:11:56;2.40;99.90
27270;DHT22;14769;56.934;24.176;2022-12-29T04:12:58;2.40;99.90
27270;DHT22;14769;56.934;24.176;2022-12-29T04:14:01;2.50;99.90
27270;DHT22;14769;56.934;24.176;2022-12-29T04:15:06;2.40;99.90
27270;DHT22;14769;56.934;24.176;2022-12-29T04:16:08;2.40;99.90
27270;DHT22;14769;56.934;24.176;2022-12-29T04:17:14;2.40;99.90
27270;DHT22;14769;56.934;24.176;2022-12-29T04:18:19;2.40;99.90
27270;DHT22;14769;56.934;24.176;2022-12-29T04:19:27;2.40;99.90
27270;DHT22;14769;56.934;24.176;2022-12-29T04:20:35;2.40;99.90
27270;DHT22;14769;56.934;24.176;2022-12-29T04:22:01;2.40;99.90
27270;DHT22;14769;56.934;24.176;2022-12-29T04:23:06;2.40;99.90
27270;DHT22;14769;56.934;24.176;2022-12-29T04:24:14;2.40;99.90
27270;DHT22;14769;56.934;24.176;2022-12-29T04:25:22;2.40;99.90
27270;DHT22;14769;56.934;24.176;2022-12-29T04:26:25;2.40;99.90
27270;DHT22;14769;56.934;24.176;2022-12-29T04:27:29;2.40;99.90
27270;DHT22;14769;56.934;24.176;2022-12-29T04:28:32;2.40;99.90
27270;DHT22;14769;56.934;24.176;2022-12-29T04:29:34;2.40;99.90
27270;DHT22;14769;56.934;24.176;2022-12-29T04:30:37;2.40;99.90
27270;DHT22;14769;56.934;24.176;2022-12-29T04:31:40;2.40;99.90
27270;DHT22;14769;56.934;24.176;2022-12-29T04:32:43;2.40;99.90
27270;DHT22;14769;56.934;24.176;2022-12-29T04:33:45;2.40;99.90
27270;DHT22;14769;56.934;24.176;2022-12-29T04:34:51;2.40;99.90
27270;DHT22;14769;56.934;24.176;2022-12-29T04:35:57;2.50;99.90
27270;DHT22;14769;56.934;24.176;2022-12-29T04:37:01;2.40;99.90
27270;DHT22;14769;56.934;24.176;2022-12-29T04:38:04;2.40;99.90
27270;DHT22;14769;56.934;24.176;2022-12-29T04:39:11;2.40;99.90
27270;DHT22;14769;56.934;24.176;2022-12-29T04:40:15;2.50;99.90
27270;DHT22;14769;56.934;24.176;2022-12-29T04:41:17;2.40;99.90
27270;DHT22;14769;56.934;24.176;2022-12-29T04:42:21;2.50;99.90
27270;DHT22;14769;56.934;24.176;2022-12-29T04:43:24;2.50;99.90
27270;DHT22;14769;56.934;24.176;2022-12-29T04:44:27;2.40;99.90
27270;DHT22;14769;56.934;24.176;2022-12-29T04:45:29;2.40;99.90
27270;DHT22;14769;56.934;24.176;2022-12-29T04:47:08;2.40;99.90
27270;DHT22;14769;56.934;24.176;2022-12-29T04:48:21;2.40;99.90
27270;DHT22;14769;56.934;24.176;2022-12-29T04:49:50;2.40;99.90
27270;DHT22;14769;56.934;24.176;2022-12-29T04:51:15;2.40;99.90
27270;DHT22;14769;56.934;24.176;2022-12-29T04:52:44;2.40;99.90
27270;DHT22;14769;56.934;24.176;2022-12-29T04:54:07;2.40;99.90
27270;DHT22;14769;56.934;24.176;2022-12-29T04:55:12;2.40;99.90
27270;DHT22;14769;56.934;24.176;2022-12-29T04:56:58;2.40;99.90
27270;DHT22;14769;56.934;24.176;2022-12-29T04:58:12;2.40;99.90
27270;DHT22;14769;56.934;24.176;2022-12-29T05:06:00;2.30;99.90
27270;DHT22;14769;56.934;24.176;2022-12-29T05:07:08;2.40;99.90
27270;DHT22;14769;56.934;24.176;2022-12-29T05:08:15;2.30;99.90
27270;DHT22;14769;56.934;24.176;2022-12-29T05:09:29;2.30;99.90
27270;DHT22;14769;56.934;24.176;2022-12-29T05:10:53;2.30;99.90
27270;DHT22;14769;56.934;24.176;2022-12-29T05:12:02;2.40;99.90
27270;DHT22;14769;56.934;24.176;2022-12-29T05:13:14;2.40;99.90
27270;DHT22;14769;56.934;24.176;2022-12-29T05:14:27;2.40;99.90
27270;DHT22;14769;56.934;24.176;2022-12-29T05:15:37;2.40;99.90
27270;DHT22;14769;56.934;24.176;2022-12-29T05:16:46;2.40;99.90
27270;DHT22;14769;56.934;24.176;2022-12-29T05:18:13;2.50;99.90
27270;DHT22;14769;56.934;24.176;2022-12-29T05:19:29;2.40;99.90
27270;DHT22;14769;56.934;24.176;2022-12-29T05:20:33;2.40;99.90
27270;DHT22;14769;56.934;24.176;2022-12-29T05:21:36;2.50;99.90
27270;DHT22;14769;56.934;24.176;2022-12-29T05:22:40;2.50;99.90
27270;DHT22;14769;56.934;24.176;2022-12-29T05:23:42;2.50;99.90
27270;DHT22;14769;56.934;24.176;2022-12-29T05:24:47;2.50;99.90
27270;DHT22;14769;56.934;24.176;2022-12-29T05:25:49;2.50;99.90
27270;DHT22;14769;56.934;24.176;2022-12-29T05:26:51;2.60;99.90
27270;DHT22;14769;56.934;24.176;2022-12-29T05:27:53;2.50;99.90
27270;DHT22;14769;56.934;24.176;2022-12-29T05:28:58;2.60;99.90
27270;DHT22;14769;56.934;24.176;2022-12-29T05:30:01;2.60;99.90
27270;DHT22;14769;56.934;24.176;2022-12-29T05:31:08;2.60;99.90
27270;DHT22;14769;56.934;24.176;2022-12-29T05:32:12;2.60;99.90
27270;DHT22;14769;56.934;24.176;2022-12-29T05:33:16;2.50;99.90
27270;DHT22;14769;56.934;24.176;2022-12-29T05:34:22;2.60;99.90
27270;DHT22;14769;56.934;24.176;2022-12-29T05:35:26;2.60;99.90
27270;DHT22;14769;56.934;24.176;2022-12-29T05:36:28;2.60;99.90
27270;DHT22;14769;56.934;24.176;2022-12-29T05:37:38;2.60;99.90
27270;DHT22;14769;56.934;24.176;2022-12-29T05:38:45;2.60;99.90
27270;DHT22;14769;56.934;24.176;2022-12-29T05:39:55;2.60;99.90
27270;DHT22;14769;56.934;24.176;2022-12-29T05:41:02;2.60;99.90
27270;DHT22;14769;56.934;24.176;2022-12-29T05:43:01;2.60;99.90
27270;DHT22;14769;56.934;24.176;2022-12-29T05:45:00;2.60;99.90
27270;DHT22;14769;56.934;24.176;2022-12-29T05:46:03;2.50;99.90
27270;DHT22;14769;56.934;24.176;2022-12-29T05:47:07;2.50;99.90
27270;DHT22;14769;56.934;24.176;2022-12-29T05:48:11;2.50;99.90
27270;DHT22;14769;56.934;24.176;2022-12-29T05:49:15;2.50;99.90
27270;DHT22;14769;56.934;24.176;2022-12-29T05:50:25;2.60;99.90
27270;DHT22;14769;56.934;24.176;2022-12-29T05:51:28;2.60;99.90
27270;DHT22;14769;56.934;24.176;2022-12-29T05:52:31;2.60;99.90
27270;DHT22;14769;56.934;24.176;2022-12-29T05:53:39;2.60;99.90
27270;DHT22;14769;56.934;24.176;2022-12-29T05:54:44;2.60;99.90
27270;DHT22;14769;56.934;24.176;2022-12-29T05:55:49;2.60;99.90
27270;DHT22;14769;56.934;24.176;2022-12-29T05:56:53;2.60;99.90
27270;DHT22;14769;56.934;24.176;2022-12-29T05:58:00;2.60;99.90
27270;DHT22;14769;56.934;24.176;2022-12-29T05:59:18;2.60;99.90
27270;DHT22;14769;56.934;24.176;2022-12-29T06:00:40;2.60;99.90
27270;DHT22;14769;56.934;24.176;2022-12-29T06:01:51;2.60;99.90
27270;DHT22;14769;56.934;24.176;2022-12-29T06:03:04;2.60;99.90
27270;DHT22;14769;56.934;24.176;2022-12-29T06:04:19;2.60;99.90
27270;DHT22;14769;56.934;24.176;2022-12-29T06:05:33;2.60;99.90
27270;DHT22;14769;56.934;24.176;2022-12-29T06:06:46;2.60;99.90
27270;DHT22;14769;56.934;24.176;2022-12-29T06:07:54;2.60;99.90
27270;DHT22;14769;56.934;24.176;2022-12-29T06:09:01;2.60;99.90
27270;DHT22;14769;56.934;24.176;2022-12-29T06:10:08;2.60;99.90
27270;DHT22;14769;56.934;24.176;2022-12-29T06:11:12;2.60;99.90
27270;DHT22;14769;56.934;24.176;2022-12-29T06:12:15;2.60;99.90
27270;DHT22;14769;56.934;24.176;2022-12-29T06:13:18;2.60;99.90
27270;DHT22;14769;56.934;24.176;2022-12-29T06:14:22;2.60;99.90
27270;DHT22;14769;56.934;24.176;2022-12-29T06:15:27;2.60;99.90
27270;DHT22;14769;56.934;24.176;2022-12-29T06:18:24;2.70;99.90
27270;DHT22;14769;56.934;24.176;2022-12-29T06:19:38;2.60;99.90
27270;DHT22;14769;56.934;24.176;2022-12-29T06:20:51;2.60;99.90
27270;DHT22;14769;56.934;24.176;2022-12-29T06:22:05;2.60;99.90
27270;DHT22;14769;56.934;24.176;2022-12-29T06:23:34;2.60;99.90
27270;DHT22;14769;56.934;24.176;2022-12-29T06:24:52;2.60;99.90
27270;DHT22;14769;56.934;24.176;2022-12-29T06:26:35;2.70;99.90
27270;DHT22;14769;56.934;24.176;2022-12-29T06:28:02;2.60;99.90
27270;DHT22;14769;56.934;24.176;2022-12-29T06:29:28;2.60;99.90
27270;DHT22;14769;56.934;24.176;2022-12-29T06:30:54;2.60;99.90
27270;DHT22;14769;56.934;24.176;2022-12-29T06:32:05;2.60;99.90
27270;DHT22;14769;56.934;24.176;2022-12-29T06:33:11;2.60;99.90
27270;DHT22;14769;56.934;24.176;2022-12-29T06:34:18;2.60;99.90
27270;DHT22;14769;56.934;24.176;2022-12-29T06:35:35;2.70;99.90
27270;DHT22;14769;56.934;24.176;2022-12-29T06:37:11;2.70;99.90
27270;DHT22;14769;56.934;24.176;2022-12-29T06:38:46;2.70;99.90
27270;DHT22;14769;56.934;24.176;2022-12-29T06:40:55;2.70;99.90
27270;DHT22;14769;56.934;24.176;2022-12-29T06:42:00;2.70;99.90
27270;DHT22;14769;56.934;24.176;2022-12-29T06:43:23;2.60;99.90
27270;DHT22;14769;56.934;24.176;2022-12-29T06:44:45;2.60;99.90
27270;DHT22;14769;56.934;24.176;2022-12-29T06:45:55;2.60;99.90
27270;DHT22;14769;56.934;24.176;2022-12-29T06:46:58;2.60;99.90
27270;DHT22;14769;56.934;24.176;2022-12-29T06:48:02;2.60;99.90
27270;DHT22;14769;56.934;24.176;2022-12-29T06:49:16;2.60;99.90
27270;DHT22;14769;56.934;24.176;2022-12-29T06:50:26;2.60;99.90
27270;DHT22;14769;56.934;24.176;2022-12-29T06:51:54;2.60;99.90
27270;DHT22;14769;56.934;24.176;2022-12-29T06:52:57;2.60;99.90
27270;DHT22;14769;56.934;24.176;2022-12-29T06:55:20;2.70;99.90
27270;DHT22;14769;56.934;24.176;2022-12-29T06:56:54;2.70;99.90
27270;DHT22;14769;56.934;24.176;2022-12-29T06:58:17;2.70;99.90
27270;DHT22;14769;56.934;24.176;2022-12-29T07:01:28;2.70;99.90
27270;DHT22;14769;56.934;24.176;2022-12-29T07:03:14;2.60;99.90
27270;DHT22;14769;56.934;24.176;2022-12-29T07:04:20;2.60;99.90
27270;DHT22;14769;56.934;24.176;2022-12-29T07:05:22;2.60;99.90
27270;DHT22;14769;56.934;24.176;2022-12-29T07:06:24;2.60;99.90
27270;DHT22;14769;56.934;24.176;2022-12-29T07:07:41;2.60;99.90
27270;DHT22;14769;56.934;24.176;2022-12-29T07:08:45;2.70;99.90
27270;DHT22;14769;56.934;24.176;2022-12-29T07:09:47;2.70;99.90
27270;DHT22;14769;56.934;24.176;2022-12-29T07:10:50;2.70;99.90
27270;DHT22;14769;56.934;24.176;2022-12-29T07:11:55;2.70;99.90
27270;DHT22;14769;56.934;24.176;2022-12-29T07:12:58;2.70;99.90
27270;DHT22;14769;56.934;24.176;2022-12-29T07:14:04;2.70;99.90
27270;DHT22;14769;56.934;24.176;2022-12-29T07:15:13;2.70;99.90
27270;DHT22;14769;56.934;24.176;2022-12-29T07:16:16;2.70;99.90
27270;DHT22;14769;56.934;24.176;2022-12-29T07:17:18;2.70;99.90
27270;DHT22;14769;56.934;24.176;2022-12-29T07:18:21;2.70;99.90
27270;DHT22;14769;56.934;24.176;2022-12-29T07:19:26;2.70;99.90
27270;DHT22;14769;56.934;24.176;2022-12-29T07:20:31;2.70;99.90
27270;DHT22;14769;56.934;24.176;2022-12-29T07:21:40;2.80;99.90
27270;DHT22;14769;56.934;24.176;2022-12-29T07:22:46;2.80;99.90
27270;DHT22;14769;56.934;24.176;2022-12-29T07:23:55;2.80;99.90
27270;DHT22;14769;56.934;24.176;2022-12-29T07:25:03;2.80;99.90
27270;DHT22;14769;56.934;24.176;2022-12-29T07:26:14;2.80;99.90
27270;DHT22;14769;56.934;24.176;2022-12-29T07:27:17;2.80;99.90
27270;DHT22;14769;56.934;24.176;2022-12-29T07:28:27;2.80;99.90
27270;DHT22;14769;56.934;24.176;2022-12-29T07:29:33;2.80;99.90
27270;DHT22;14769;56.934;24.176;2022-12-29T07:30:40;2.80;99.90
27270;DHT22;14769;56.934;24.176;2022-12-29T07:31:43;2.80;99.90
27270;DHT22;14769;56.934;24.176;2022-12-29T07:32:47;2.80;99.90
27270;DHT22;14769;56.934;24.176;2022-12-29T07:33:50;2.80;99.90
27270;DHT22;14769;56.934;24.176;2022-12-29T07:34:54;2.80;99.90
27270;DHT22;14769;56.934;24.176;2022-12-29T07:36:07;2.80;99.90
27270;DHT22;14769;56.934;24.176;2022-12-29T07:37:15;2.80;99.90
27270;DHT22;14769;56.934;24.176;2022-12-29T07:38:19;2.80;99.90
27270;DHT22;14769;56.934;24.176;2022-12-29T07:39:26;2.80;99.90
27270;DHT22;14769;56.934;24.176;2022-12-29T07:40:32;2.90;99.90
27270;DHT22;14769;56.934;24.176;2022-12-29T07:41:36;2.90;99.90
27270;DHT22;14769;56.934;24.176;2022-12-29T07:42:40;2.80;99.90
27270;DHT22;14769;56.934;24.176;2022-12-29T07:43:48;2.90;99.90
27270;DHT22;14769;56.934;24.176;2022-12-29T07:44:52;2.90;99.90
27270;DHT22;14769;56.934;24.176;2022-12-29T07:45:55;2.90;99.90
27270;DHT22;14769;56.934;24.176;2022-12-29T07:47:02;2.90;99.90
27270;DHT22;14769;56.934;24.176;2022-12-29T07:48:12;2.90;99.90
27270;DHT22;14769;56.934;24.176;2022-12-29T07:49:14;2.90;99.90
27270;DHT22;14769;56.934;24.176;2022-12-29T07:50:21;2.90;99.90
27270;DHT22;14769;56.934;24.176;2022-12-29T07:51:25;2.90;99.90
27270;DHT22;14769;56.934;24.176;2022-12-29T07:52:27;2.90;99.90
27270;DHT22;14769;56.934;24.176;2022-12-29T07:53:29;2.90;99.90
27270;DHT22;14769;56.934;24.176;2022-12-29T07:54:42;2.90;99.90
27270;DHT22;14769;56.934;24.176;2022-12-29T07:55:52;2.90;99.90
27270;DHT22;14769;56.934;24.176;2022-12-29T07:57:42;2.90;99.90
27270;DHT22;14769;56.934;24.176;2022-12-29T07:58:52;2.90;99.90
27270;DHT22;14769;56.934;24.176;2022-12-29T07:59:59;2.90;99.90
27270;DHT22;14769;56.934;24.176;2022-12-29T08:01:07;2.90;99.90
27270;DHT22;14769;56.934;24.176;2022-12-29T08:02:23;2.80;99.90
27270;DHT22;14769;56.934;24.176;2022-12-29T08:03:30;2.90;99.90
27270;DHT22;14769;56.934;24.176;2022-12-29T08:04:42;2.90;99.90
27270;DHT22;14769;56.934;24.176;2022-12-29T08:14:55;2.80;99.90
27270;DHT22;14769;56.934;24.176;2022-12-29T08:16:12;2.80;99.90
27270;DHT22;14769;56.934;24.176;2022-12-29T08:17:23;2.80;99.90
27270;DHT22;14769;56.934;24.176;2022-12-29T08:19:13;2.80;99.90
27270;DHT22;14769;56.934;24.176;2022-12-29T08:21:18;2.80;99.90
27270;DHT22;14769;56.934;24.176;2022-12-29T08:22:21;2.80;99.90
27270;DHT22;14769;56.934;24.176;2022-12-29T08:23:28;2.80;99.90
27270;DHT22;14769;56.934;24.176;2022-12-29T08:29:54;2.80;99.90
27270;DHT22;14769;56.934;24.176;2022-12-29T08:31:28;2.90;99.90
27270;DHT22;14769;56.934;24.176;2022-12-29T08:32:31;2.80;99.90
27270;DHT22;14769;56.934;24.176;2022-12-29T08:33:49;2.80;99.90
27270;DHT22;14769;56.934;24.176;2022-12-29T08:35:01;2.90;99.90
27270;DHT22;14769;56.934;24.176;2022-12-29T08:39:08;2.90;99.90
27270;DHT22;14769;56.934;24.176;2022-12-29T08:40:15;2.90;99.90
27270;DHT22;14769;56.934;24.176;2022-12-29T08:41:19;2.90;99.90
27270;DHT22;14769;56.934;24.176;2022-12-29T08:42:44;2.90;99.90
27270;DHT22;14769;56.934;24.176;2022-12-29T08:44:14;3.00;99.90
27270;DHT22;14769;56.934;24.176;2022-12-29T08:45:19;2.90;99.90
27270;DHT22;14769;56.934;24.176;2022-12-29T08:46:37;2.90;99.90
27270;DHT22;14769;56.934;24.176;2022-12-29T08:47:39;2.90;99.90
27270;DHT22;14769;56.934;24.176;2022-12-29T08:48:52;3.00;99.90
27270;DHT22;14769;56.934;24.176;2022-12-29T08:50:28;3.00;99.90
27270;DHT22;14769;56.934;24.176;2022-12-29T08:51:37;3.00;99.90
27270;DHT22;14769;56.934;24.176;2022-12-29T08:52:40;3.00;99.90
27270;DHT22;14769;56.934;24.176;2022-12-29T08:53:53;3.00;99.90
27270;DHT22;14769;56.934;24.176;2022-12-29T08:55:00;3.00;99.90
27270;DHT22;14769;56.934;24.176;2022-12-29T08:56:05;3.10;99.90
27270;DHT22;14769;56.934;24.176;2022-12-29T08:57:29;3.10;99.90
27270;DHT22;14769;56.934;24.176;2022-12-29T08:58:36;3.10;99.90